Time;durP1;ratioP1;P1;durP2;ratioP2;P2;SDS_P1;SDS_P2;PMS_P1;PMS_P2;Temp;Humidity;BMP_temperature;BMP_pressure;BME280_temperature;BME280_humidity;BME280_pressure;Samples;Min_cycle;Max_cycle;Signal;HPM_P1;HPM_P2
2022/12/12 00:01:25;;;;;;;42.22;21.40;;;-1.50;99.90;;;;;;5051066;28;20398;-70
2022/12/12 00:03:53;;;;;;;42.55;22.35;;;-1.50;99.90;;;;;;5033244;28;20139;-70
2022/12/12 00:06:21;;;;;;;41.75;20.63;;;-1.60;99.90;;;;;;5049971;28;20045;-70
2022/12/12 00:08:51;;;;;;;39.30;20.50;;;-1.60;99.90;;;;;;5027630;28;20049;-70
2022/12/12 00:11:19;;;;;;;38.58;19.70;;;-1.60;99.90;;;;;;5040404;28;20071;-71
2022/12/12 00:13:47;;;;;;;41.05;21.05;;;-1.60;99.90;;;;;;5032171;28;20049;-70
2022/12/12 00:16:15;;;;;;;45.50;23.70;;;-1.60;99.90;;;;;;5025055;28;20094;-70
2022/12/12 00:18:42;;;;;;;39.78;20.02;;;-1.60;99.90;;;;;;5046414;28;20068;-70
2022/12/12 00:21:19;;;;;;;37.95;20.27;;;-1.60;99.90;;;;;;5028684;28;20041;-71
2022/12/12 00:23:47;;;;;;;42.40;21.00;;;-1.60;99.90;;;;;;5029448;28;20106;-71
2022/12/12 00:26:22;;;;;;;37.40;20.38;;;-1.60;99.90;;;;;;5019968;28;20055;-71
2022/12/12 00:28:50;;;;;;;39.13;20.00;;;-1.60;99.90;;;;;;5048316;28;20037;-71
2022/12/12 00:31:18;;;;;;;37.63;19.85;;;-1.60;99.90;;;;;;5046239;28;20492;-70
2022/12/12 00:33:48;;;;;;;41.60;19.92;;;-1.70;99.90;;;;;;5027289;28;20623;-71
2022/12/12 00:36:22;;;;;;;38.40;19.20;;;-1.60;99.90;;;;;;5030158;28;20063;-70
2022/12/12 00:38:51;;;;;;;37.10;19.10;;;-1.60;99.90;;;;;;5046287;28;20498;-70
2022/12/12 00:41:19;;;;;;;38.85;20.08;;;-1.70;99.90;;;;;;5046408;28;20028;-70
2022/12/12 00:43:47;;;;;;;38.10;21.02;;;-1.70;99.90;;;;;;5022554;28;20151;-71
2022/12/12 00:46:22;;;;;;;41.53;20.35;;;-1.70;99.90;;;;;;5042116;28;20558;-72
2022/12/12 00:48:53;;;;;;;43.08;21.60;;;-1.70;99.90;;;;;;5036985;28;20040;-70
2022/12/12 00:51:23;;;;;;;42.95;21.85;;;-1.70;99.90;;;;;;5046686;28;20045;-71
2022/12/12 00:53:50;;;;;;;42.13;21.58;;;-1.70;99.90;;;;;;5048463;28;20056;-69
2022/12/12 00:56:21;;;;;;;39.75;20.13;;;-1.70;99.90;;;;;;5048208;28;20487;-70
2022/12/12 00:58:49;;;;;;;37.15;20.30;;;-1.70;99.90;;;;;;5047448;28;20048;-70
2022/12/12 01:01:20;;;;;;;37.28;20.27;;;-1.70;99.90;;;;;;5042609;28;20059;-70
2022/12/12 01:03:48;;;;;;;45.10;21.08;;;-1.70;99.90;;;;;;5044834;28;20053;-70
2022/12/12 01:06:16;;;;;;;40.90;21.48;;;-1.60;99.90;;;;;;5044256;28;20407;-70
2022/12/12 01:08:44;;;;;;;41.05;21.95;;;-1.70;99.90;;;;;;5032105;28;20049;-70
2022/12/12 01:11:14;;;;;;;43.50;20.88;;;-1.60;99.90;;;;;;5018118;28;20053;-71
2022/12/12 01:13:42;;;;;;;40.03;20.25;;;-1.60;99.90;;;;;;5036568;28;20040;-70
2022/12/12 01:16:11;;;;;;;43.55;21.92;;;-1.70;99.90;;;;;;5031466;28;20045;-71
2022/12/12 01:18:40;;;;;;;38.05;19.67;;;-1.70;99.90;;;;;;5032478;28;20041;-71
2022/12/12 01:21:12;;;;;;;39.00;19.75;;;-1.60;99.90;;;;;;5038523;28;20088;-70
2022/12/12 01:23:40;;;;;;;41.50;21.15;;;-1.70;99.90;;;;;;5043850;28;20087;-71
2022/12/12 01:26:11;;;;;;;40.17;21.23;;;-1.70;99.90;;;;;;5028359;28;20049;-69
2022/12/12 01:28:39;;;;;;;43.17;20.13;;;-1.70;99.90;;;;;;5043032;28;20573;-71
2022/12/12 01:31:06;;;;;;;40.92;20.48;;;-1.70;99.90;;;;;;5046481;28;20502;-71
2022/12/12 01:33:34;;;;;;;41.75;20.08;;;-1.80;99.90;;;;;;5039953;28;20396;-70
2022/12/12 01:36:02;;;;;;;38.95;20.73;;;-1.80;99.90;;;;;;5043010;28;20049;-71
2022/12/12 01:38:29;;;;;;;38.42;20.20;;;-1.80;99.90;;;;;;5031236;28;20103;-71
2022/12/12 01:40:57;;;;;;;39.83;20.80;;;-1.80;99.90;;;;;;5048416;28;20098;-68
2022/12/12 01:43:25;;;;;;;43.10;21.17;;;-1.80;99.90;;;;;;5047867;28;20041;-69
2022/12/12 01:45:58;;;;;;;39.55;21.27;;;-1.70;99.90;;;;;;5046478;28;20087;-70
2022/12/12 01:48:44;;;;;;;43.03;22.98;;;-1.70;99.90;;;;;;5028000;28;20045;-70
2022/12/12 01:51:18;;;;;;;40.58;21.15;;;-1.70;99.90;;;;;;5027266;28;20049;-71
2022/12/12 01:53:49;;;;;;;46.38;23.15;;;-1.70;99.90;;;;;;5048541;28;20045;-71
2022/12/12 01:56:18;;;;;;;45.42;21.92;;;-1.70;99.90;;;;;;5036461;28;20037;-70
2022/12/12 01:58:48;;;;;;;43.25;22.83;;;-1.80;99.90;;;;;;5015620;28;20041;-70
2022/12/12 02:01:17;;;;;;;45.60;22.08;;;-1.70;99.90;;;;;;5045333;28;20049;-71
2022/12/12 02:03:45;;;;;;;41.28;22.02;;;-1.70;99.90;;;;;;5044992;28;20037;-70
2022/12/12 02:06:18;;;;;;;44.72;22.92;;;-1.70;99.90;;;;;;5043577;28;20052;-70
2022/12/12 02:08:45;;;;;;;41.55;21.63;;;-1.70;99.90;;;;;;5048544;28;20112;-70
2022/12/12 02:11:13;;;;;;;42.28;21.92;;;-1.70;99.90;;;;;;5031810;28;20484;-70
2022/12/12 02:13:41;;;;;;;43.55;22.67;;;-1.70;99.90;;;;;;5046985;28;20052;-70
2022/12/12 02:16:11;;;;;;;41.55;22.08;;;-1.70;99.90;;;;;;5048115;28;20072;-70
2022/12/12 02:19:16;;;;;;;49.55;22.48;;;-1.70;99.90;;;;;;5049845;28;20440;-70
2022/12/12 02:21:50;;;;;;;38.20;20.35;;;-1.70;99.90;;;;;;5051154;28;20044;-70
2022/12/12 02:24:47;;;;;;;48.33;21.40;;;-1.70;99.90;;;;;;5044163;28;20045;-70
2022/12/12 02:27:16;;;;;;;43.58;21.45;;;-1.70;99.90;;;;;;5050882;28;20041;-70
2022/12/12 02:29:52;;;;;;;43.35;21.00;;;-1.70;99.90;;;;;;5053011;28;20128;-70
2022/12/12 02:32:58;;;;;;;42.65;21.10;;;-1.80;99.90;;;;;;5032980;28;20056;-70
2022/12/12 02:35:43;;;;;;;45.33;22.90;;;-1.70;99.90;;;;;;5011097;28;20042;-69
2022/12/12 02:38:32;;;;;;;41.97;21.38;;;-1.80;99.90;;;;;;4979123;28;20501;-70
2022/12/12 02:41:23;;;;;;;42.22;22.75;;;-1.80;99.90;;;;;;5007172;28;20049;-70
2022/12/12 02:43:56;;;;;;;46.20;23.90;;;-1.80;99.90;;;;;;4994232;28;20073;-71
2022/12/12 02:46:56;;;;;;;43.28;22.38;;;-1.80;99.90;;;;;;5010079;28;20088;-71
2022/12/12 02:49:33;;;;;;;42.20;22.23;;;-1.80;99.90;;;;;;4947704;28;20043;-70
2022/12/12 02:52:01;;;;;;;42.80;22.63;;;-1.70;99.90;;;;;;4946084;29;20492;-70
2022/12/12 02:54:29;;;;;;;43.53;22.45;;;-1.80;99.90;;;;;;4946436;29;20058;-71
2022/12/12 02:56:59;;;;;;;46.17;23.73;;;-1.70;99.90;;;;;;4915688;29;20048;-70
2022/12/12 02:59:29;;;;;;;42.63;23.20;;;-1.70;99.90;;;;;;4936180;28;20044;-70
2022/12/12 03:02:20;;;;;;;44.22;22.95;;;-1.70;99.90;;;;;;4949460;28;20508;-70
2022/12/12 03:08:24;;;;;;;39.13;21.13;;;-1.80;99.90;;;;;;4923192;29;20848;-70
2022/12/12 03:11:30;;;;;;;39.17;21.67;;;-1.70;99.90;;;;;;4921332;29;20179;-70
2022/12/12 03:14:10;;;;;;;42.30;21.75;;;-1.70;99.90;;;;;;4896722;29;20593;-70
2022/12/12 03:16:46;;;;;;;45.22;22.15;;;-1.70;99.90;;;;;;4913878;29;20167;-70
2022/12/12 03:19:28;;;;;;;44.95;22.25;;;-1.70;99.90;;;;;;4911448;29;20048;-70
2022/12/12 03:22:22;;;;;;;47.47;22.75;;;-1.70;99.90;;;;;;4912709;29;20048;-69
2022/12/12 03:25:00;;;;;;;41.25;21.48;;;-1.70;99.90;;;;;;4912841;29;20052;-70
2022/12/12 03:27:38;;;;;;;39.08;20.75;;;-1.70;99.90;;;;;;4934402;29;20079;-70
2022/12/12 03:30:12;;;;;;;37.75;20.35;;;-1.70;99.90;;;;;;4947871;29;20399;-70
2022/12/12 03:32:51;;;;;;;39.38;20.77;;;-1.70;99.90;;;;;;4949272;29;20047;-72
2022/12/12 03:35:44;;;;;;;40.60;21.80;;;-1.60;99.90;;;;;;4929738;29;20043;-70
2022/12/12 03:38:43;;;;;;;38.67;21.88;;;-1.70;99.90;;;;;;4944489;29;20878;-70
2022/12/12 03:41:19;;;;;;;41.00;22.25;;;-1.70;99.90;;;;;;4941264;29;20097;-70
2022/12/12 03:44:17;;;;;;;46.42;22.77;;;-1.70;99.90;;;;;;4941931;28;20051;-69
2022/12/12 03:46:53;;;;;;;45.40;23.52;;;-1.80;99.90;;;;;;5042512;28;20037;-70
2022/12/12 03:49:38;;;;;;;45.30;23.73;;;-1.80;99.90;;;;;;5062717;28;20045;-72
2022/12/12 03:52:37;;;;;;;42.58;21.92;;;-1.80;99.90;;;;;;5029105;28;20143;-72
2022/12/12 03:55:15;;;;;;;35.47;18.08;;;-1.90;99.90;;;;;;5036253;28;20507;-72
2022/12/12 03:58:08;;;;;;;31.17;17.05;;;-2.00;99.90;;;;;;5042509;28;20040;-73
2022/12/12 04:00:38;;;;;;;38.00;19.17;;;-1.90;99.90;;;;;;5046911;28;20048;-72
2022/12/12 04:03:25;;;;;;;35.20;17.65;;;-2.00;99.90;;;;;;5044640;28;20041;-72
2022/12/12 04:06:31;;;;;;;37.47;19.50;;;-2.00;99.90;;;;;;5040114;28;20056;-71
2022/12/12 04:15:10;;;;;;;41.00;20.40;;;-2.10;99.90;;;;;;5029289;28;20470;-72
2022/12/12 04:17:43;;;;;;;43.00;22.45;;;-2.00;99.90;;;;;;5038035;28;20060;-71
2022/12/12 04:23:39;;;;;;;47.67;23.10;;;-2.10;99.90;;;;;;5044801;28;20046;-73
2022/12/12 04:29:24;;;;;;;49.28;24.70;;;-2.10;99.90;;;;;;5028840;28;20083;-72
2022/12/12 04:32:11;;;;;;;47.20;25.00;;;-2.10;99.90;;;;;;5046046;28;20151;-73
2022/12/12 04:34:49;;;;;;;46.10;25.33;;;-2.10;99.90;;;;;;5047552;28;20391;-72
2022/12/12 04:37:26;;;;;;;53.80;27.08;;;-2.00;99.90;;;;;;5048517;28;20060;-72
2022/12/12 04:39:58;;;;;;;53.33;27.65;;;-2.10;99.90;;;;;;5048008;28;20879;-72
2022/12/12 04:42:31;;;;;;;50.70;26.17;;;-2.00;99.90;;;;;;5042777;28;20033;-72
2022/12/12 04:45:05;;;;;;;57.40;26.80;;;-2.10;99.90;;;;;;5048080;28;20057;-71
2022/12/12 04:47:35;;;;;;;51.45;27.60;;;-2.10;99.90;;;;;;5023999;28;20049;-72
2022/12/12 04:50:06;;;;;;;53.28;26.67;;;-2.10;99.90;;;;;;5049959;28;20057;-72
2022/12/12 04:52:34;;;;;;;55.28;27.42;;;-2.10;99.90;;;;;;5043155;28;20044;-72
2022/12/12 04:55:09;;;;;;;53.63;26.55;;;-2.10;99.90;;;;;;5026597;28;20052;-73
2022/12/12 04:57:46;;;;;;;52.53;26.88;;;-2.10;99.90;;;;;;5030221;28;20040;-72
2022/12/12 05:00:14;;;;;;;54.90;28.10;;;-2.10;99.90;;;;;;5047610;28;20044;-72
2022/12/12 05:02:56;;;;;;;50.67;26.90;;;-2.10;99.90;;;;;;5048377;28;20048;-71
2022/12/12 05:05:44;;;;;;;51.17;26.05;;;-2.20;99.90;;;;;;5048754;28;20495;-72
2022/12/12 05:08:16;;;;;;;56.50;27.13;;;-2.20;99.90;;;;;;5041860;28;20064;-73
2022/12/12 05:10:45;;;;;;;50.90;27.88;;;-2.20;99.90;;;;;;5049019;28;20433;-72
2022/12/12 05:13:22;;;;;;;51.38;25.55;;;-2.20;99.90;;;;;;5043401;28;20063;-72
2022/12/12 05:15:53;;;;;;;58.45;28.75;;;-2.20;99.90;;;;;;5050136;28;20495;-72
2022/12/12 05:18:21;;;;;;;43.63;22.50;;;-2.20;99.90;;;;;;5040997;28;20511;-71
2022/12/12 05:20:49;;;;;;;52.80;26.17;;;-2.20;99.90;;;;;;5037278;28;20423;-72
2022/12/12 05:23:16;;;;;;;56.85;28.35;;;-2.20;99.90;;;;;;5048925;28;20037;-72
2022/12/12 05:25:44;;;;;;;57.00;27.60;;;-2.20;99.90;;;;;;5031705;28;20056;-73
2022/12/12 05:28:11;;;;;;;48.05;26.02;;;-2.20;99.90;;;;;;5048879;28;20041;-72
2022/12/12 05:30:38;;;;;;;54.75;27.25;;;-2.30;99.90;;;;;;5047653;28;20044;-72
2022/12/12 05:33:06;;;;;;;55.90;28.10;;;-2.30;99.90;;;;;;5044855;28;20049;-72
2022/12/12 05:35:33;;;;;;;51.88;26.55;;;-2.30;99.90;;;;;;5037420;28;20057;-73
2022/12/12 05:38:01;;;;;;;51.08;25.58;;;-2.40;99.90;;;;;;5011008;28;20037;-71
2022/12/12 05:40:28;;;;;;;47.13;25.58;;;-2.40;99.90;;;;;;5015988;28;20055;-73
2022/12/12 05:42:55;;;;;;;51.15;26.45;;;-2.40;99.90;;;;;;5049957;28;20055;-72
2022/12/12 05:45:23;;;;;;;49.85;25.52;;;-2.50;99.90;;;;;;5049651;28;20045;-73
2022/12/12 05:47:50;;;;;;;47.30;25.40;;;-2.50;99.90;;;;;;5032531;28;20224;-73
2022/12/12 05:50:18;;;;;;;50.60;25.23;;;-2.50;99.90;;;;;;5046398;28;20049;-73
2022/12/12 05:52:45;;;;;;;48.45;25.38;;;-2.60;99.90;;;;;;5059930;28;20064;-73
2022/12/12 05:55:12;;;;;;;52.50;25.77;;;-2.60;99.90;;;;;;5042608;28;20093;-73
2022/12/12 05:57:40;;;;;;;52.33;25.40;;;-2.70;99.90;;;;;;5051462;28;20065;-73
2022/12/12 06:00:08;;;;;;;48.33;25.52;;;-2.70;99.90;;;;;;5048283;28;20071;-73
2022/12/12 06:02:36;;;;;;;52.08;25.27;;;-2.70;99.90;;;;;;5051665;28;20130;-73
2022/12/12 06:05:04;;;;;;;47.45;25.92;;;-2.80;99.90;;;;;;5033610;28;20124;-73
2022/12/12 06:07:31;;;;;;;52.22;24.30;;;-2.80;99.90;;;;;;5035878;28;20072;-73
2022/12/12 06:09:59;;;;;;;59.85;28.33;;;-2.90;99.90;;;;;;5052352;28;20063;-73
2022/12/12 06:12:26;;;;;;;53.22;25.88;;;-2.90;99.90;;;;;;5032544;28;20524;-74
2022/12/12 06:14:53;;;;;;;54.85;25.92;;;-2.90;99.90;;;;;;5047786;28;20114;-74
2022/12/12 06:17:21;;;;;;;52.80;26.50;;;-2.90;99.90;;;;;;5046527;28;20048;-74
2022/12/12 06:19:48;;;;;;;51.72;25.20;;;-2.90;99.90;;;;;;5034258;28;20051;-74
2022/12/12 06:22:16;;;;;;;54.33;26.67;;;-2.90;99.90;;;;;;5025083;28;20450;-74
2022/12/12 06:24:44;;;;;;;58.40;26.90;;;-2.90;99.90;;;;;;5047517;28;20465;-73
2022/12/12 06:27:11;;;;;;;52.30;25.23;;;-2.90;99.90;;;;;;5033229;28;20494;-74
2022/12/12 06:29:39;;;;;;;51.08;26.98;;;-2.90;99.90;;;;;;5049444;28;20044;-74
2022/12/12 06:32:06;;;;;;;53.28;24.80;;;-2.90;99.90;;;;;;5050957;28;20130;-72
2022/12/12 06:34:33;;;;;;;49.17;26.10;;;-3.00;99.90;;;;;;5048724;28;20491;-74
2022/12/12 06:37:01;;;;;;;54.17;25.58;;;-3.00;99.90;;;;;;5032586;28;20042;-72
2022/12/12 06:39:28;;;;;;;50.55;26.13;;;-3.00;99.90;;;;;;5026316;28;20539;-72
2022/12/12 06:41:55;;;;;;;51.50;25.48;;;-3.00;99.90;;;;;;5035242;28;20472;-73
2022/12/12 06:44:23;;;;;;;52.55;26.08;;;-3.00;99.90;;;;;;5048185;28;20128;-71
2022/12/12 06:46:50;;;;;;;48.92;24.45;;;-3.00;99.90;;;;;;5028837;28;20414;-74
2022/12/12 06:49:18;;;;;;;50.65;24.80;;;-3.10;99.90;;;;;;5050924;28;20053;-73
2022/12/12 06:51:47;;;;;;;55.42;26.67;;;-3.10;99.90;;;;;;5049290;28;20469;-74
2022/12/12 06:54:17;;;;;;;51.63;26.20;;;-3.10;99.90;;;;;;5045462;28;20110;-73
2022/12/12 06:56:44;;;;;;;60.78;29.73;;;-3.10;99.90;;;;;;5037916;28;20048;-73
2022/12/12 06:59:15;;;;;;;55.88;26.70;;;-3.10;99.90;;;;;;5042708;28;20055;-73
2022/12/12 07:01:43;;;;;;;67.55;30.65;;;-3.00;99.90;;;;;;5046870;28;20049;-73
2022/12/12 07:04:12;;;;;;;62.55;30.95;;;-3.10;99.90;;;;;;5051147;28;20440;-74
2022/12/12 07:06:40;;;;;;;51.60;26.90;;;-3.00;99.90;;;;;;5047141;28;20061;-71
2022/12/12 07:09:07;;;;;;;55.20;27.58;;;-3.00;99.90;;;;;;5034826;28;20056;-74
2022/12/12 07:11:35;;;;;;;56.30;29.25;;;-3.00;99.90;;;;;;5049936;28;20110;-70
2022/12/12 07:14:04;;;;;;;56.35;27.88;;;-3.10;99.90;;;;;;5056182;28;20052;-69
2022/12/12 07:16:32;;;;;;;53.38;26.13;;;-3.00;99.90;;;;;;5039509;28;20044;-70
2022/12/12 07:18:59;;;;;;;52.33;27.10;;;-3.00;99.90;;;;;;5028047;28;20056;-71
2022/12/12 07:21:27;;;;;;;56.20;27.30;;;-3.10;99.90;;;;;;5066142;28;20521;-70
2022/12/12 07:23:57;;;;;;;56.85;27.25;;;-3.00;99.90;;;;;;5050291;28;20102;-70
2022/12/12 07:26:25;;;;;;;55.92;27.02;;;-3.00;99.90;;;;;;5030399;28;20044;-68
2022/12/12 07:28:52;;;;;;;59.67;28.67;;;-3.00;99.90;;;;;;5043646;28;20404;-70
2022/12/12 07:31:21;;;;;;;58.95;28.38;;;-3.00;99.90;;;;;;5027266;28;20053;-69
2022/12/12 07:33:49;;;;;;;56.45;28.60;;;-3.00;99.90;;;;;;5046394;28;20044;-70
2022/12/12 07:36:16;;;;;;;55.65;28.40;;;-3.00;99.90;;;;;;5050455;28;20044;-70
2022/12/12 07:38:44;;;;;;;63.35;29.40;;;-3.00;99.90;;;;;;5040207;28;20088;-70
2022/12/12 07:41:14;;;;;;;57.53;29.38;;;-3.00;99.90;;;;;;5045063;28;20577;-69
2022/12/12 07:43:43;;;;;;;52.90;27.02;;;-2.90;99.90;;;;;;5030752;28;20129;-70
2022/12/12 07:46:16;;;;;;;54.83;27.85;;;-2.80;99.90;;;;;;5048943;28;20057;-70
2022/12/12 07:48:43;;;;;;;55.65;27.58;;;-2.80;99.90;;;;;;5041676;28;20046;-70
2022/12/12 07:51:11;;;;;;;52.47;26.48;;;-2.80;99.90;;;;;;5028362;28;20491;-70
2022/12/12 07:53:39;;;;;;;57.40;28.10;;;-2.70;99.90;;;;;;5027376;28;20581;-70
2022/12/12 07:56:08;;;;;;;50.53;26.75;;;-2.60;99.90;;;;;;5040679;28;20055;-71
2022/12/12 07:58:36;;;;;;;50.35;25.08;;;-2.50;99.90;;;;;;5018362;28;20471;-71
2022/12/12 08:01:16;;;;;;;50.35;24.70;;;-2.40;99.90;;;;;;5037089;28;20265;-71
2022/12/12 08:03:45;;;;;;;55.53;26.00;;;-2.30;99.90;;;;;;5036777;28;20037;-72
2022/12/12 08:06:15;;;;;;;48.15;24.92;;;-2.30;99.90;;;;;;5040557;28;20049;-71
2022/12/12 08:08:44;;;;;;;50.47;24.65;;;-2.10;99.90;;;;;;5045726;28;20037;-71
2022/12/12 08:11:15;;;;;;;46.13;23.20;;;-1.90;99.90;;;;;;5024016;28;20774;-72
2022/12/12 08:13:42;;;;;;;45.08;23.92;;;-1.90;99.90;;;;;;5049869;28;20497;-71
2022/12/12 08:16:19;;;;;;;47.17;26.05;;;-1.90;99.90;;;;;;5046398;28;20059;-70
2022/12/12 08:18:47;;;;;;;45.83;24.48;;;-1.70;99.90;;;;;;5038996;28;20052;-70
2022/12/12 08:21:16;;;;;;;45.53;22.95;;;-1.40;99.90;;;;;;5041834;28;20459;-71
2022/12/12 08:23:55;;;;;;;42.42;21.83;;;-1.30;99.90;;;;;;5046582;28;20049;-71
2022/12/12 08:26:22;;;;;;;42.17;21.77;;;-1.30;99.90;;;;;;5043235;28;20515;-71
2022/12/12 08:28:50;;;;;;;50.63;24.63;;;-1.40;99.90;;;;;;5046475;28;20052;-71
2022/12/12 08:31:19;;;;;;;46.78;24.63;;;-1.40;99.90;;;;;;5043092;28;20094;-71
2022/12/12 08:33:49;;;;;;;50.90;24.20;;;-1.40;99.90;;;;;;5030656;28;20033;-72
2022/12/12 08:36:22;;;;;;;46.35;23.27;;;-1.50;99.90;;;;;;5014720;28;20045;-71
2022/12/12 08:38:50;;;;;;;41.83;22.17;;;-1.40;99.90;;;;;;5035296;28;20049;-72
2022/12/12 08:41:17;;;;;;;43.33;22.13;;;-1.40;99.90;;;;;;5042866;28;20389;-71
2022/12/12 08:43:45;;;;;;;45.97;25.23;;;-1.40;99.90;;;;;;5021100;28;20045;-71
2022/12/12 08:46:14;;;;;;;44.80;23.98;;;-1.40;99.90;;;;;;5033796;28;20044;-71
2022/12/12 08:48:45;;;;;;;45.50;23.65;;;-1.50;99.90;;;;;;5026960;28;20537;-72
2022/12/12 08:51:14;;;;;;;47.58;24.20;;;-1.50;99.90;;;;;;5042651;28;20061;-71
2022/12/12 08:53:46;;;;;;;44.60;22.83;;;-1.50;99.90;;;;;;5030075;28;20048;-71
2022/12/12 08:56:15;;;;;;;45.35;23.52;;;-1.50;99.90;;;;;;5040315;28;20045;-70
2022/12/12 08:58:43;;;;;;;48.15;23.30;;;-1.50;99.90;;;;;;5031198;28;20037;-70
2022/12/12 09:01:18;;;;;;;44.70;23.20;;;-1.50;99.90;;;;;;5046129;28;20514;-70
2022/12/12 09:03:46;;;;;;;42.53;22.83;;;-1.50;99.90;;;;;;5042065;28;20045;-70
2022/12/12 09:06:15;;;;;;;47.22;23.48;;;-1.40;99.90;;;;;;5029881;28;20426;-71
2022/12/12 09:08:44;;;;;;;47.88;23.27;;;-1.40;99.90;;;;;;5048434;28;20079;-70
2022/12/12 09:11:12;;;;;;;45.92;23.58;;;-1.40;99.90;;;;;;5044035;28;20091;-70
2022/12/12 09:13:40;;;;;;;41.97;22.95;;;-1.30;99.90;;;;;;5048121;28;20041;-71
2022/12/12 09:16:08;;;;;;;44.25;22.70;;;-1.20;99.90;;;;;;5046550;28;20037;-71
2022/12/12 09:18:36;;;;;;;37.58;21.35;;;-1.20;99.90;;;;;;5026243;28;20139;-71
2022/12/12 09:21:10;;;;;;;43.53;22.95;;;-1.20;99.90;;;;;;5030305;28;20065;-71
2022/12/12 09:23:38;;;;;;;45.00;22.70;;;-1.20;99.90;;;;;;5043683;28;20095;-71
2022/12/12 09:26:06;;;;;;;43.30;22.85;;;-1.10;99.90;;;;;;5037871;28;20419;-71
2022/12/12 09:28:34;;;;;;;38.28;20.65;;;-1.10;99.90;;;;;;5045782;28;20041;-71
2022/12/12 09:31:10;;;;;;;41.53;21.83;;;-1.00;99.90;;;;;;5039446;28;20057;-70
2022/12/12 09:33:38;;;;;;;40.58;22.70;;;-1.00;99.90;;;;;;5031780;28;20068;-70
2022/12/12 09:36:07;;;;;;;36.85;20.25;;;-1.00;99.90;;;;;;5042468;28;20144;-72
2022/12/12 09:38:35;;;;;;;41.60;21.77;;;-0.90;99.90;;;;;;5032664;28;20123;-71
2022/12/12 09:41:09;;;;;;;40.03;21.48;;;-0.80;99.90;;;;;;5042462;28;20059;-71
2022/12/12 09:44:04;;;;;;;38.58;21.58;;;-0.70;99.90;;;;;;5043610;28;20045;-71
2022/12/12 09:46:45;;;;;;;40.85;22.60;;;-0.80;99.90;;;;;;5041288;28;20052;-72
2022/12/12 09:49:33;;;;;;;41.63;22.83;;;-0.90;99.90;;;;;;5029497;28;20041;-70
2022/12/12 09:52:16;;;;;;;38.90;19.13;;;-0.60;99.90;;;;;;5042212;28;20132;-70
2022/12/12 09:54:44;;;;;;;42.50;21.67;;;-0.30;99.90;;;;;;5031452;28;20044;-73
2022/12/12 09:57:23;;;;;;;39.28;21.27;;;0.00;99.90;;;;;;5047085;28;20044;-70
2022/12/12 10:00:07;;;;;;;37.55;20.10;;;0.00;99.90;;;;;;5045724;28;20044;-70
2022/12/12 10:02:44;;;;;;;36.67;20.50;;;0.10;99.90;;;;;;5048663;28;20120;-70
2022/12/12 10:05:15;;;;;;;36.33;19.92;;;0.40;99.90;;;;;;5048427;28;20546;-70
2022/12/12 10:07:56;;;;;;;35.50;19.27;;;0.40;99.90;;;;;;5042692;28;20073;-71
2022/12/12 10:10:30;;;;;;;39.42;22.15;;;0.40;99.90;;;;;;5040333;28;20044;-72
2022/12/12 10:13:00;;;;;;;36.17;19.65;;;0.50;99.90;;;;;;5047997;28;20051;-70
2022/12/12 10:15:37;;;;;;;38.72;22.10;;;0.70;99.90;;;;;;5048649;28;20045;-71
2022/12/12 10:18:17;;;;;;;36.55;21.30;;;0.40;99.90;;;;;;5046402;28;20065;-70
2022/12/12 10:20:50;;;;;;;37.67;20.85;;;0.80;99.90;;;;;;5046352;28;20480;-72
2022/12/12 10:23:47;;;;;;;39.40;20.88;;;1.10;99.90;;;;;;5027909;28;20133;-71
2022/12/12 10:26:22;;;;;;;40.55;21.05;;;1.00;99.90;;;;;;5044051;28;20049;-72
2022/12/12 10:28:57;;;;;;;40.83;21.40;;;1.30;99.90;;;;;;5046228;28;20093;-72
2022/12/12 10:31:37;;;;;;;36.58;20.80;;;1.20;99.90;;;;;;5035290;28;20403;-71
2022/12/12 10:34:36;;;;;;;38.72;21.13;;;1.30;99.90;;;;;;5044179;28;20037;-71
2022/12/12 10:37:37;;;;;;;38.42;22.30;;;1.20;99.90;;;;;;5049922;28;20047;-71
2022/12/12 10:40:27;;;;;;;40.60;21.40;;;1.00;99.90;;;;;;5040522;28;20125;-71
2022/12/12 10:43:21;;;;;;;38.47;20.83;;;1.10;99.90;;;;;;5046155;28;20128;-71
2022/12/12 10:45:48;;;;;;;36.92;20.38;;;1.60;99.90;;;;;;5041746;28;20041;-71
2022/12/12 10:48:16;;;;;;;37.05;21.27;;;1.60;99.90;;;;;;5043753;28;20041;-70
2022/12/12 10:50:54;;;;;;;38.17;22.05;;;1.40;99.90;;;;;;5045393;28;20040;-70
2022/12/12 10:53:22;;;;;;;36.30;21.33;;;1.20;99.90;;;;;;5037980;28;20041;-71
2022/12/12 10:55:58;;;;;;;41.03;22.50;;;1.20;99.90;;;;;;5047591;28;20124;-71
2022/12/12 10:58:27;;;;;;;34.95;20.75;;;0.80;99.90;;;;;;5044609;28;20163;-71
2022/12/12 11:01:03;;;;;;;37.88;21.45;;;0.90;99.90;;;;;;5047228;28;20456;-72
2022/12/12 11:03:36;;;;;;;39.17;22.65;;;1.00;99.90;;;;;;5049718;28;20040;-73
2022/12/12 11:06:07;;;;;;;38.70;20.65;;;0.80;99.90;;;;;;5037505;28;20080;-73
2022/12/12 11:08:36;;;;;;;36.60;20.05;;;0.70;99.90;;;;;;5043981;28;20029;-72
2022/12/12 11:11:09;;;;;;;33.55;19.15;;;0.70;99.90;;;;;;5048008;28;20040;-71
2022/12/12 11:13:49;;;;;;;32.00;20.00;;;0.90;99.90;;;;;;5032494;28;20041;-72
2022/12/12 11:16:20;;;;;;;34.42;20.25;;;0.90;99.90;;;;;;5034254;28;20128;-72
2022/12/12 11:18:58;;;;;;;37.38;20.20;;;0.80;99.90;;;;;;5051107;28;20059;-71
2022/12/12 11:21:27;;;;;;;33.03;19.17;;;0.70;99.90;;;;;;5030004;28;20052;-72
2022/12/12 11:23:57;;;;;;;30.42;19.00;;;0.60;99.90;;;;;;5031407;28;20407;-72
2022/12/12 11:26:28;;;;;;;33.47;17.98;;;0.60;99.90;;;;;;5024074;28;20139;-72
2022/12/12 11:28:59;;;;;;;34.08;19.33;;;0.50;99.90;;;;;;5028289;28;20068;-72
2022/12/12 11:31:33;;;;;;;36.03;19.58;;;0.40;99.90;;;;;;5030560;28;20044;-72
2022/12/12 11:34:04;;;;;;;36.45;19.80;;;0.30;99.90;;;;;;5044441;28;20053;-73
2022/12/12 11:36:37;;;;;;;33.22;18.73;;;0.20;99.90;;;;;;5039191;28;20063;-73
2022/12/12 11:39:22;;;;;;;36.45;20.02;;;0.10;99.90;;;;;;5029529;28;20315;-71
2022/12/12 11:42:17;;;;;;;35.13;18.67;;;-0.10;99.90;;;;;;5061039;28;20114;-72
2022/12/12 11:44:45;;;;;;;33.17;17.33;;;-0.10;99.90;;;;;;5040808;28;20454;-72
2022/12/12 11:47:20;;;;;;;34.03;17.35;;;0.00;99.90;;;;;;5042162;28;20045;-73
2022/12/12 11:49:58;;;;;;;32.70;17.60;;;-0.10;99.90;;;;;;5047824;28;20515;-72
2022/12/12 11:52:27;;;;;;;35.65;18.45;;;-0.20;99.90;;;;;;5044351;28;20053;-73
2022/12/12 11:54:56;;;;;;;27.60;16.98;;;-0.20;99.90;;;;;;5030382;28;20053;-72
2022/12/12 11:57:26;;;;;;;32.20;18.67;;;-0.20;99.90;;;;;;5036212;28;20040;-72
2022/12/12 12:00:08;;;;;;;33.42;19.40;;;-0.20;99.90;;;;;;5049375;28;20052;-71
2022/12/12 12:03:18;;;;;;;31.65;18.50;;;-0.10;99.90;;;;;;5043861;28;20057;-72
2022/12/12 12:06:21;;;;;;;34.75;18.02;;;-0.20;99.90;;;;;;5023139;28;20096;-72
2022/12/12 12:09:27;;;;;;;29.60;17.52;;;-0.20;99.90;;;;;;5001459;28;20467;-72
2022/12/12 12:12:08;;;;;;;28.90;16.52;;;-0.10;99.90;;;;;;4966583;28;20129;-72
2022/12/12 12:15:00;;;;;;;32.67;19.08;;;0.00;99.90;;;;;;4969366;28;20428;-72
2022/12/12 12:17:27;;;;;;;;;;;-0.10;99.90;;;;;;4949911;28;20053;-72
2022/12/12 12:20:06;;;;;;;34.05;19.58;;;-0.10;99.90;;;;;;4953532;28;20372;-72
2022/12/12 12:22:56;;;;;;;34.35;18.85;;;-0.10;99.90;;;;;;4951098;28;20085;-73
2022/12/12 12:25:42;;;;;;;33.25;19.45;;;0.00;99.90;;;;;;4967233;28;20093;-73
2022/12/12 12:28:25;;;;;;;33.28;18.10;;;-0.10;99.90;;;;;;4969943;28;20397;-72
2022/12/12 12:31:11;;;;;;;35.65;19.33;;;-0.10;99.90;;;;;;4969057;28;20050;-72
2022/12/12 12:34:07;;;;;;;32.83;18.13;;;-0.10;99.90;;;;;;4949980;28;20421;-72
2022/12/12 12:36:51;;;;;;;32.28;17.58;;;-0.20;99.90;;;;;;4968090;28;20050;-72
2022/12/12 12:39:44;;;;;;;33.05;18.73;;;-0.20;99.90;;;;;;4951217;28;20055;-72
2022/12/12 12:42:26;;;;;;;30.65;18.88;;;-0.30;99.90;;;;;;4941202;28;20424;-72
2022/12/12 12:44:59;;;;;;;35.75;19.38;;;-0.30;99.90;;;;;;4960853;28;20057;-72
2022/12/12 12:47:53;;;;;;;36.15;19.30;;;-0.20;99.90;;;;;;5030943;28;20466;-72
2022/12/12 12:50:28;;;;;;;34.13;20.05;;;-0.20;99.90;;;;;;5044639;28;20538;-72
2022/12/12 12:52:58;;;;;;;37.60;20.10;;;-0.20;99.90;;;;;;5028262;28;20076;-72
2022/12/12 12:55:36;;;;;;;33.28;19.00;;;-0.10;99.90;;;;;;5032543;28;20049;-72
2022/12/12 12:58:05;;;;;;;37.78;20.00;;;-0.10;99.90;;;;;;5064381;28;20485;-72
2022/12/12 13:00:34;;;;;;;39.50;19.98;;;0.00;99.90;;;;;;5050063;28;20426;-72
2022/12/12 13:03:11;;;;;;;36.47;19.70;;;0.00;99.90;;;;;;5048776;28;20044;-72
2022/12/12 13:05:42;;;;;;;38.60;20.70;;;0.00;99.90;;;;;;5046982;28;20495;-71
2022/12/12 13:08:27;;;;;;;35.72;20.45;;;-0.10;99.90;;;;;;5027191;28;20064;-71
2022/12/12 13:11:12;;;;;;;39.13;21.23;;;-0.10;99.90;;;;;;5045578;28;20516;-71
2022/12/12 13:13:43;;;;;;;37.58;21.70;;;-0.10;99.90;;;;;;5048416;28;20116;-72
2022/12/12 13:16:20;;;;;;;43.38;21.33;;;-0.10;99.90;;;;;;5047654;28;20102;-71
2022/12/12 13:19:07;;;;;;;35.67;19.50;;;-0.10;99.90;;;;;;5049639;28;20048;-71